sensor_id;sensor_type;location;lat;lon;timestamp;temperature;humidity
55203;DHT22;41077;52.956;6.796;2022-09-13T00:00:43;17.30;99.90
55203;DHT22;41077;52.956;6.796;2022-09-13T00:03:11;17.30;99.90
55203;DHT22;41077;52.956;6.796;2022-09-13T00:05:38;17.30;99.90
55203;DHT22;41077;52.956;6.796;2022-09-13T00:08:05;17.20;99.90
55203;DHT22;41077;52.956;6.796;2022-09-13T00:10:33;17.20;99.90
55203;DHT22;41077;52.956;6.796;2022-09-13T00:12:59;17.30;99.90
55203;DHT22;41077;52.956;6.796;2022-09-13T00:15:24;17.20;99.90
55203;DHT22;41077;52.956;6.796;2022-09-13T00:17:50;17.20;99.90
55203;DHT22;41077;52.956;6.796;2022-09-13T00:20:16;17.20;99.90
55203;DHT22;41077;52.956;6.796;2022-09-13T00:22:42;17.20;99.90
55203;DHT22;41077;52.956;6.796;2022-09-13T00:25:08;17.20;99.90
55203;DHT22;41077;52.956;6.796;2022-09-13T00:27:34;17.20;99.90
55203;DHT22;41077;52.956;6.796;2022-09-13T00:30:01;17.20;99.90
55203;DHT22;41077;52.956;6.796;2022-09-13T00:32:27;17.10;99.90
55203;DHT22;41077;52.956;6.796;2022-09-13T00:34:53;17.10;99.90
55203;DHT22;41077;52.956;6.796;2022-09-13T00:37:18;17.10;99.90
55203;DHT22;41077;52.956;6.796;2022-09-13T00:39:44;17.00;99.90
55203;DHT22;41077;52.956;6.796;2022-09-13T00:42:11;17.10;99.90
55203;DHT22;41077;52.956;6.796;2022-09-13T00:47:20;17.10;99.90
55203;DHT22;41077;52.956;6.796;2022-09-13T00:49:50;17.10;99.90
55203;DHT22;41077;52.956;6.796;2022-09-13T00:52:19;17.10;99.90
55203;DHT22;41077;52.956;6.796;2022-09-13T00:54:52;17.10;99.90
55203;DHT22;41077;52.956;6.796;2022-09-13T00:57:20;17.10;99.90
55203;DHT22;41077;52.956;6.796;2022-09-13T01:02:33;17.10;99.90
55203;DHT22;41077;52.956;6.796;2022-09-13T01:04:59;17.10;99.90
55203;DHT22;41077;52.956;6.796;2022-09-13T01:07:24;17.10;99.90
55203;DHT22;41077;52.956;6.796;2022-09-13T01:09:51;17.10;99.90
55203;DHT22;41077;52.956;6.796;2022-09-13T01:12:39;17.10;99.90
55203;DHT22;41077;52.956;6.796;2022-09-13T01:15:07;17.10;99.90
55203;DHT22;41077;52.956;6.796;2022-09-13T01:17:34;17.10;99.90
55203;DHT22;41077;52.956;6.796;2022-09-13T01:20:01;17.10;99.90
55203;DHT22;41077;52.956;6.796;2022-09-13T01:23:13;17.10;99.90
55203;DHT22;41077;52.956;6.796;2022-09-13T01:31:33;17.10;99.90
55203;DHT22;41077;52.956;6.796;2022-09-13T01:39:46;17.10;99.90
55203;DHT22;41077;52.956;6.796;2022-09-13T01:42:28;17.10;99.90
55203;DHT22;41077;52.956;6.796;2022-09-13T01:53:17;17.10;99.90
55203;DHT22;41077;52.956;6.796;2022-09-13T01:58:42;17.10;99.90
55203;DHT22;41077;52.956;6.796;2022-09-13T02:01:14;17.10;99.90
55203;DHT22;41077;52.956;6.796;2022-09-13T02:06:25;17.00;99.90
55203;DHT22;41077;52.956;6.796;2022-09-13T02:08:59;17.10;99.90
55203;DHT22;41077;52.956;6.796;2022-09-13T02:11:26;17.10;99.90
55203;DHT22;41077;52.956;6.796;2022-09-13T02:14:05;17.00;99.90
55203;DHT22;41077;52.956;6.796;2022-09-13T02:16:38;17.10;99.90
55203;DHT22;41077;52.956;6.796;2022-09-13T02:19:13;17.10;99.90
55203;DHT22;41077;52.956;6.796;2022-09-13T02:21:45;17.10;99.90
55203;DHT22;41077;52.956;6.796;2022-09-13T02:24:32;17.10;99.90
55203;DHT22;41077;52.956;6.796;2022-09-13T02:27:05;17.10;99.90
55203;DHT22;41077;52.956;6.796;2022-09-13T02:29:35;17.10;99.90
55203;DHT22;41077;52.956;6.796;2022-09-13T02:32:09;17.10;99.90
55203;DHT22;41077;52.956;6.796;2022-09-13T02:34:50;17.10;99.90
55203;DHT22;41077;52.956;6.796;2022-09-13T02:37:17;17.00;99.90
55203;DHT22;41077;52.956;6.796;2022-09-13T02:39:48;17.00;99.90
55203;DHT22;41077;52.956;6.796;2022-09-13T02:44:58;17.00;99.90
55203;DHT22;41077;52.956;6.796;2022-09-13T02:47:41;17.00;99.90
55203;DHT22;41077;52.956;6.796;2022-09-13T02:50:26;17.00;99.90
55203;DHT22;41077;52.956;6.796;2022-09-13T02:58:24;17.00;99.90
55203;DHT22;41077;52.956;6.796;2022-09-13T03:00:52;17.00;99.90
55203;DHT22;41077;52.956;6.796;2022-09-13T03:03:19;17.00;99.90
55203;DHT22;41077;52.956;6.796;2022-09-13T03:05:45;17.00;99.90
55203;DHT22;41077;52.956;6.796;2022-09-13T03:08:12;17.00;99.90
55203;DHT22;41077;52.956;6.796;2022-09-13T03:10:50;17.00;99.90
55203;DHT22;41077;52.956;6.796;2022-09-13T03:13:34;17.00;99.90
55203;DHT22;41077;52.956;6.796;2022-09-13T03:16:16;17.00;99.90
55203;DHT22;41077;52.956;6.796;2022-09-13T03:22:01;17.00;99.90
55203;DHT22;41077;52.956;6.796;2022-09-13T03:27:29;17.00;99.90
55203;DHT22;41077;52.956;6.796;2022-09-13T03:30:11;17.00;99.90
55203;DHT22;41077;52.956;6.796;2022-09-13T03:35:35;17.00;99.90
55203;DHT22;41077;52.956;6.796;2022-09-13T03:38:20;17.00;99.90
55203;DHT22;41077;52.956;6.796;2022-09-13T03:40:52;17.00;99.90
55203;DHT22;41077;52.956;6.796;2022-09-13T03:45:53;17.00;99.90
55203;DHT22;41077;52.956;6.796;2022-09-13T03:48:20;17.10;99.90
55203;DHT22;41077;52.956;6.796;2022-09-13T03:50:47;17.10;99.90
55203;DHT22;41077;52.956;6.796;2022-09-13T03:53:19;17.10;99.90
55203;DHT22;41077;52.956;6.796;2022-09-13T03:55:45;17.10;99.90
55203;DHT22;41077;52.956;6.796;2022-09-13T03:58:17;17.10;99.90
55203;DHT22;41077;52.956;6.796;2022-09-13T04:00:43;17.10;99.90
55203;DHT22;41077;52.956;6.796;2022-09-13T04:03:09;17.10;99.90
55203;DHT22;41077;52.956;6.796;2022-09-13T04:05:35;17.10;99.90
55203;DHT22;41077;52.956;6.796;2022-09-13T04:08:03;17.10;99.90
55203;DHT22;41077;52.956;6.796;2022-09-13T04:10:33;17.10;99.90
55203;DHT22;41077;52.956;6.796;2022-09-13T04:13:00;17.20;99.90
55203;DHT22;41077;52.956;6.796;2022-09-13T04:15:26;17.20;99.90
55203;DHT22;41077;52.956;6.796;2022-09-13T04:17:52;17.20;99.90
55203;DHT22;41077;52.956;6.796;2022-09-13T04:20:18;17.30;99.90
55203;DHT22;41077;52.956;6.796;2022-09-13T04:22:53;17.30;99.90
55203;DHT22;41077;52.956;6.796;2022-09-13T04:25:20;17.30;99.90
55203;DHT22;41077;52.956;6.796;2022-09-13T04:27:47;17.30;99.90
55203;DHT22;41077;52.956;6.796;2022-09-13T04:30:13;17.30;99.90
55203;DHT22;41077;52.956;6.796;2022-09-13T04:32:42;17.30;99.90
55203;DHT22;41077;52.956;6.796;2022-09-13T04:35:08;17.30;99.90
55203;DHT22;41077;52.956;6.796;2022-09-13T04:37:34;17.30;99.90
55203;DHT22;41077;52.956;6.796;2022-09-13T04:39:59;17.30;99.90
55203;DHT22;41077;52.956;6.796;2022-09-13T04:42:25;17.30;99.90
55203;DHT22;41077;52.956;6.796;2022-09-13T04:44:51;17.40;99.90
55203;DHT22;41077;52.956;6.796;2022-09-13T04:47:16;17.40;99.90
55203;DHT22;41077;52.956;6.796;2022-09-13T04:49:42;17.40;99.90
55203;DHT22;41077;52.956;6.796;2022-09-13T04:52:08;17.40;99.90
55203;DHT22;41077;52.956;6.796;2022-09-13T04:54:34;17.40;99.90
55203;DHT22;41077;52.956;6.796;2022-09-13T04:56:59;17.40;99.90
55203;DHT22;41077;52.956;6.796;2022-09-13T04:59:25;17.40;99.90
55203;DHT22;41077;52.956;6.796;2022-09-13T05:01:50;17.40;99.90
55203;DHT22;41077;52.956;6.796;2022-09-13T05:04:16;17.40;99.90
55203;DHT22;41077;52.956;6.796;2022-09-13T05:06:42;17.40;99.90
55203;DHT22;41077;52.956;6.796;2022-09-13T05:09:12;17.50;99.90
55203;DHT22;41077;52.956;6.796;2022-09-13T05:11:38;17.40;99.90
55203;DHT22;41077;52.956;6.796;2022-09-13T05:14:04;17.50;99.90
55203;DHT22;41077;52.956;6.796;2022-09-13T05:16:31;17.50;99.90
55203;DHT22;41077;52.956;6.796;2022-09-13T05:18:58;17.40;99.90
55203;DHT22;41077;52.956;6.796;2022-09-13T05:21:25;17.50;99.90
55203;DHT22;41077;52.956;6.796;2022-09-13T05:23:54;17.50;99.90
55203;DHT22;41077;52.956;6.796;2022-09-13T05:26:21;17.50;99.90
55203;DHT22;41077;52.956;6.796;2022-09-13T05:28:47;17.40;99.90
55203;DHT22;41077;52.956;6.796;2022-09-13T05:31:19;17.50;99.90
55203;DHT22;41077;52.956;6.796;2022-09-13T05:33:47;17.50;99.90
55203;DHT22;41077;52.956;6.796;2022-09-13T05:36:13;17.40;99.90
55203;DHT22;41077;52.956;6.796;2022-09-13T05:38:39;17.50;99.90
55203;DHT22;41077;52.956;6.796;2022-09-13T05:41:05;17.50;99.90
55203;DHT22;41077;52.956;6.796;2022-09-13T05:43:33;17.50;99.90
55203;DHT22;41077;52.956;6.796;2022-09-13T05:46:10;17.50;99.90
55203;DHT22;41077;52.956;6.796;2022-09-13T05:48:37;17.50;99.90
55203;DHT22;41077;52.956;6.796;2022-09-13T05:53:33;17.50;99.90
55203;DHT22;41077;52.956;6.796;2022-09-13T05:55:59;17.50;99.90
55203;DHT22;41077;52.956;6.796;2022-09-13T05:58:25;17.50;99.90
55203;DHT22;41077;52.956;6.796;2022-09-13T06:00:52;17.60;99.90
55203;DHT22;41077;52.956;6.796;2022-09-13T06:03:19;17.50;99.90
55203;DHT22;41077;52.956;6.796;2022-09-13T06:05:45;17.60;99.90
55203;DHT22;41077;52.956;6.796;2022-09-13T06:08:10;17.50;99.90
55203;DHT22;41077;52.956;6.796;2022-09-13T06:10:36;17.50;99.90
55203;DHT22;41077;52.956;6.796;2022-09-13T06:13:02;17.50;99.90
55203;DHT22;41077;52.956;6.796;2022-09-13T06:15:27;17.50;99.90
55203;DHT22;41077;52.956;6.796;2022-09-13T06:17:53;17.50;99.90
55203;DHT22;41077;52.956;6.796;2022-09-13T06:20:19;17.50;99.90
55203;DHT22;41077;52.956;6.796;2022-09-13T06:22:46;17.50;99.90
55203;DHT22;41077;52.956;6.796;2022-09-13T06:25:12;17.40;99.90
55203;DHT22;41077;52.956;6.796;2022-09-13T06:27:38;17.40;99.90
55203;DHT22;41077;52.956;6.796;2022-09-13T06:30:04;17.40;99.90
55203;DHT22;41077;52.956;6.796;2022-09-13T06:32:31;17.40;99.90
55203;DHT22;41077;52.956;6.796;2022-09-13T06:34:57;17.30;99.90
55203;DHT22;41077;52.956;6.796;2022-09-13T06:37:23;17.30;99.90
55203;DHT22;41077;52.956;6.796;2022-09-13T06:39:48;17.30;99.90
55203;DHT22;41077;52.956;6.796;2022-09-13T06:42:14;17.30;99.90
55203;DHT22;41077;52.956;6.796;2022-09-13T06:44:39;17.20;99.90
55203;DHT22;41077;52.956;6.796;2022-09-13T06:47:05;17.20;99.90
55203;DHT22;41077;52.956;6.796;2022-09-13T06:49:31;17.20;99.90
55203;DHT22;41077;52.956;6.796;2022-09-13T06:51:57;17.20;99.90
55203;DHT22;41077;52.956;6.796;2022-09-13T06:54:22;17.20;99.90
55203;DHT22;41077;52.956;6.796;2022-09-13T06:56:48;17.10;99.90
55203;DHT22;41077;52.956;6.796;2022-09-13T06:59:14;17.10;99.90
55203;DHT22;41077;52.956;6.796;2022-09-13T07:01:43;17.10;99.90
55203;DHT22;41077;52.956;6.796;2022-09-13T07:04:19;17.10;99.90
55203;DHT22;41077;52.956;6.796;2022-09-13T07:06:47;17.10;99.90
55203;DHT22;41077;52.956;6.796;2022-09-13T07:09:15;17.10;99.90
55203;DHT22;41077;52.956;6.796;2022-09-13T07:11:43;17.10;99.90
55203;DHT22;41077;52.956;6.796;2022-09-13T07:14:13;17.20;99.90
55203;DHT22;41077;52.956;6.796;2022-09-13T07:16:39;17.20;99.90
55203;DHT22;41077;52.956;6.796;2022-09-13T07:19:09;17.30;99.90
55203;DHT22;41077;52.956;6.796;2022-09-13T07:21:36;17.30;99.90
55203;DHT22;41077;52.956;6.796;2022-09-13T07:24:02;17.30;99.90
55203;DHT22;41077;52.956;6.796;2022-09-13T07:26:29;17.30;99.90
55203;DHT22;41077;52.956;6.796;2022-09-13T07:28:57;17.30;99.90
55203;DHT22;41077;52.956;6.796;2022-09-13T07:31:29;17.40;99.90
55203;DHT22;41077;52.956;6.796;2022-09-13T07:33:57;17.40;99.90
55203;DHT22;41077;52.956;6.796;2022-09-13T07:36:25;17.50;99.90
55203;DHT22;41077;52.956;6.796;2022-09-13T07:38:51;17.50;99.90
55203;DHT22;41077;52.956;6.796;2022-09-13T07:41:19;17.60;99.90
55203;DHT22;41077;52.956;6.796;2022-09-13T07:43:45;17.60;99.90
55203;DHT22;41077;52.956;6.796;2022-09-13T07:48:39;17.70;99.90
55203;DHT22;41077;52.956;6.796;2022-09-13T07:51:08;17.70;99.90
55203;DHT22;41077;52.956;6.796;2022-09-13T07:53:35;17.80;99.90
55203;DHT22;41077;52.956;6.796;2022-09-13T07:56:08;17.90;99.90
55203;DHT22;41077;52.956;6.796;2022-09-13T07:58:36;17.90;99.90
55203;DHT22;41077;52.956;6.796;2022-09-13T08:03:34;17.90;99.90
55203;DHT22;41077;52.956;6.796;2022-09-13T08:06:00;17.90;99.90
55203;DHT22;41077;52.956;6.796;2022-09-13T08:08:27;17.90;99.90
55203;DHT22;41077;52.956;6.796;2022-09-13T08:10:53;18.00;99.90
55203;DHT22;41077;52.956;6.796;2022-09-13T08:13:19;18.00;99.90
55203;DHT22;41077;52.956;6.796;2022-09-13T08:15:45;18.10;99.90
55203;DHT22;41077;52.956;6.796;2022-09-13T08:18:11;18.10;99.90
55203;DHT22;41077;52.956;6.796;2022-09-13T08:20:37;18.10;99.90
55203;DHT22;41077;52.956;6.796;2022-09-13T08:23:05;18.00;99.90
55203;DHT22;41077;52.956;6.796;2022-09-13T08:25:35;18.00;99.90
55203;DHT22;41077;52.956;6.796;2022-09-13T08:28:05;18.10;99.90
55203;DHT22;41077;52.956;6.796;2022-09-13T08:30:32;18.10;99.90
55203;DHT22;41077;52.956;6.796;2022-09-13T08:32:59;18.20;99.90
55203;DHT22;41077;52.956;6.796;2022-09-13T08:35:27;18.10;99.90
55203;DHT22;41077;52.956;6.796;2022-09-13T08:37:53;18.10;99.90
55203;DHT22;41077;52.956;6.796;2022-09-13T08:40:20;18.10;99.90
55203;DHT22;41077;52.956;6.796;2022-09-13T08:42:50;18.20;99.90
55203;DHT22;41077;52.956;6.796;2022-09-13T08:45:18;18.20;99.90
55203;DHT22;41077;52.956;6.796;2022-09-13T08:47:51;18.30;99.90
55203;DHT22;41077;52.956;6.796;2022-09-13T08:50:30;18.30;99.90
55203;DHT22;41077;52.956;6.796;2022-09-13T08:55:35;18.40;99.90
55203;DHT22;41077;52.956;6.796;2022-09-13T09:00:39;18.50;99.90
55203;DHT22;41077;52.956;6.796;2022-09-13T09:05:51;18.40;99.90
55203;DHT22;41077;52.956;6.796;2022-09-13T09:10:52;18.60;99.90
55203;DHT22;41077;52.956;6.796;2022-09-13T09:13:27;18.60;99.90
55203;DHT22;41077;52.956;6.796;2022-09-13T09:16:00;18.70;99.90
55203;DHT22;41077;52.956;6.796;2022-09-13T09:21:00;18.80;99.90
55203;DHT22;41077;52.956;6.796;2022-09-13T09:28:54;19.00;99.90
55203;DHT22;41077;52.956;6.796;2022-09-13T09:31:43;19.10;99.90
55203;DHT22;41077;52.956;6.796;2022-09-13T09:37:19;19.40;99.90
55203;DHT22;41077;52.956;6.796;2022-09-13T09:39:49;19.30;99.90
55203;DHT22;41077;52.956;6.796;2022-09-13T09:42:24;19.30;99.90
55203;DHT22;41077;52.956;6.796;2022-09-13T09:45:03;19.20;99.90
55203;DHT22;41077;52.956;6.796;2022-09-13T09:47:43;19.20;99.90
55203;DHT22;41077;52.956;6.796;2022-09-13T09:50:13;19.20;99.90
55203;DHT22;41077;52.956;6.796;2022-09-13T09:55:33;19.30;99.90
55203;DHT22;41077;52.956;6.796;2022-09-13T09:58:01;19.50;99.90
55203;DHT22;41077;52.956;6.796;2022-09-13T10:00:32;19.50;99.90
55203;DHT22;41077;52.956;6.796;2022-09-13T10:03:04;19.60;99.90
55203;DHT22;41077;52.956;6.796;2022-09-13T10:05:31;19.50;99.90
55203;DHT22;41077;52.956;6.796;2022-09-13T10:08:02;19.50;99.90
55203;DHT22;41077;52.956;6.796;2022-09-13T10:10:43;19.40;99.90
55203;DHT22;41077;52.956;6.796;2022-09-13T10:13:19;19.40;99.90
55203;DHT22;41077;52.956;6.796;2022-09-13T10:16:22;19.40;99.90
55203;DHT22;41077;52.956;6.796;2022-09-13T10:18:51;19.50;99.90
55203;DHT22;41077;52.956;6.796;2022-09-13T10:23:46;19.60;99.90
55203;DHT22;41077;52.956;6.796;2022-09-13T10:26:19;19.60;99.90
55203;DHT22;41077;52.956;6.796;2022-09-13T10:28:55;19.80;99.90
55203;DHT22;41077;52.956;6.796;2022-09-13T10:31:29;19.90;99.90
55203;DHT22;41077;52.956;6.796;2022-09-13T10:34:02;19.90;99.90
55203;DHT22;41077;52.956;6.796;2022-09-13T10:36:32;20.10;99.90
55203;DHT22;41077;52.956;6.796;2022-09-13T10:39:04;20.10;99.90
55203;DHT22;41077;52.956;6.796;2022-09-13T10:41:36;20.00;99.90
55203;DHT22;41077;52.956;6.796;2022-09-13T10:44:06;19.80;99.90
55203;DHT22;41077;52.956;6.796;2022-09-13T10:46:47;19.80;99.90
55203;DHT22;41077;52.956;6.796;2022-09-13T10:49:43;19.70;99.90
55203;DHT22;41077;52.956;6.796;2022-09-13T10:54:54;19.80;99.90
55203;DHT22;41077;52.956;6.796;2022-09-13T10:57:34;19.90;99.90
55203;DHT22;41077;52.956;6.796;2022-09-13T11:00:05;19.90;99.90
55203;DHT22;41077;52.956;6.796;2022-09-13T11:14:03;20.40;99.90
55203;DHT22;41077;52.956;6.796;2022-09-13T11:27:27;20.40;99.90
55203;DHT22;41077;52.956;6.796;2022-09-13T11:37:57;21.30;99.90
55203;DHT22;41077;52.956;6.796;2022-09-13T11:40:30;21.30;99.60
55203;DHT22;41077;52.956;6.796;2022-09-13T11:45:46;21.00;99.90
55203;DHT22;41077;52.956;6.796;2022-09-13T11:56:18;20.80;99.90
55203;DHT22;41077;52.956;6.796;2022-09-13T12:01:49;20.50;99.90
55203;DHT22;41077;52.956;6.796;2022-09-13T12:04:26;20.30;99.90
55203;DHT22;41077;52.956;6.796;2022-09-13T12:06:57;20.30;99.90
55203;DHT22;41077;52.956;6.796;2022-09-13T12:10:06;20.40;99.90
55203;DHT22;41077;52.956;6.796;2022-09-13T12:12:31;20.40;99.90
55203;DHT22;41077;52.956;6.796;2022-09-13T12:15:04;20.60;99.90
55203;DHT22;41077;52.956;6.796;2022-09-13T12:17:39;20.50;99.70
55203;DHT22;41077;52.956;6.796;2022-09-13T12:20:19;20.50;99.50
55203;DHT22;41077;52.956;6.796;2022-09-13T12:22:50;20.50;99.90
55203;DHT22;41077;52.956;6.796;2022-09-13T12:25:23;20.50;99.90
55203;DHT22;41077;52.956;6.796;2022-09-13T12:31:06;20.60;99.90
55203;DHT22;41077;52.956;6.796;2022-09-13T12:33:40;20.60;99.80
55203;DHT22;41077;52.956;6.796;2022-09-13T12:44:27;20.30;99.90
55203;DHT22;41077;52.956;6.796;2022-09-13T12:49:59;20.30;99.30
55203;DHT22;41077;52.956;6.796;2022-09-13T12:52:39;20.30;99.90
55203;DHT22;41077;52.956;6.796;2022-09-13T12:55:41;20.40;99.50
55203;DHT22;41077;52.956;6.796;2022-09-13T12:58:33;20.30;97.90
55203;DHT22;41077;52.956;6.796;2022-09-13T13:01:17;20.30;98.10
55203;DHT22;41077;52.956;6.796;2022-09-13T13:04:25;20.30;98.30
55203;DHT22;41077;52.956;6.796;2022-09-13T13:06:51;20.50;98.90
55203;DHT22;41077;52.956;6.796;2022-09-13T13:11:48;20.50;99.80
55203;DHT22;41077;52.956;6.796;2022-09-13T13:14:30;20.70;99.90
55203;DHT22;41077;52.956;6.796;2022-09-13T13:17:44;20.80;99.50
55203;DHT22;41077;52.956;6.796;2022-09-13T13:23:26;20.90;98.60
55203;DHT22;41077;52.956;6.796;2022-09-13T13:29:11;20.80;99.70
55203;DHT22;41077;52.956;6.796;2022-09-13T13:31:40;20.80;98.20
55203;DHT22;41077;52.956;6.796;2022-09-13T14:00:18;20.60;99.50
55203;DHT22;41077;52.956;6.796;2022-09-13T14:22:10;20.10;99.90
55203;DHT22;41077;52.956;6.796;2022-09-13T14:24:42;20.10;99.90
55203;DHT22;41077;52.956;6.796;2022-09-13T14:27:33;20.00;99.90
55203;DHT22;41077;52.956;6.796;2022-09-13T14:30:16;20.00;99.90
55203;DHT22;41077;52.956;6.796;2022-09-13T14:32:45;20.00;99.90
55203;DHT22;41077;52.956;6.796;2022-09-13T14:37:48;20.00;99.90
55203;DHT22;41077;52.956;6.796;2022-09-13T14:40:23;19.90;99.90
55203;DHT22;41077;52.956;6.796;2022-09-13T14:42:51;20.00;99.90
55203;DHT22;41077;52.956;6.796;2022-09-13T14:50:24;20.10;99.90
55203;DHT22;41077;52.956;6.796;2022-09-13T14:52:55;20.00;99.90
55203;DHT22;41077;52.956;6.796;2022-09-13T14:55:26;20.00;99.90
55203;DHT22;41077;52.956;6.796;2022-09-13T14:57:57;20.00;99.90
55203;DHT22;41077;52.956;6.796;2022-09-13T15:00:26;19.90;99.90
55203;DHT22;41077;52.956;6.796;2022-09-13T15:03:04;19.90;99.90
55203;DHT22;41077;52.956;6.796;2022-09-13T15:05:35;19.80;99.90
55203;DHT22;41077;52.956;6.796;2022-09-13T15:11:04;19.80;99.90
55203;DHT22;41077;52.956;6.796;2022-09-13T15:13:30;19.80;99.90
55203;DHT22;41077;52.956;6.796;2022-09-13T15:15:56;19.90;99.90
55203;DHT22;41077;52.956;6.796;2022-09-13T15:18:31;20.00;99.90
55203;DHT22;41077;52.956;6.796;2022-09-13T15:20:58;20.10;99.90
55203;DHT22;41077;52.956;6.796;2022-09-13T15:25:52;20.10;99.90
55203;DHT22;41077;52.956;6.796;2022-09-13T15:28:27;20.10;99.90
55203;DHT22;41077;52.956;6.796;2022-09-13T15:30:53;20.00;99.90
55203;DHT22;41077;52.956;6.796;2022-09-13T15:33:33;19.90;99.90
55203;DHT22;41077;52.956;6.796;2022-09-13T15:36:27;19.80;99.90
55203;DHT22;41077;52.956;6.796;2022-09-13T15:41:36;19.70;99.90
55203;DHT22;41077;52.956;6.796;2022-09-13T15:44:04;19.70;99.90
55203;DHT22;41077;52.956;6.796;2022-09-13T15:46:31;19.60;99.90
55203;DHT22;41077;52.956;6.796;2022-09-13T15:49:02;19.50;99.90
55203;DHT22;41077;52.956;6.796;2022-09-13T15:51:28;19.50;99.90
55203;DHT22;41077;52.956;6.796;2022-09-13T15:53:55;19.40;99.90
55203;DHT22;41077;52.956;6.796;2022-09-13T15:56:33;19.30;99.90
55203;DHT22;41077;52.956;6.796;2022-09-13T15:58:59;19.30;99.90
55203;DHT22;41077;52.956;6.796;2022-09-13T16:01:25;19.20;99.90
55203;DHT22;41077;52.956;6.796;2022-09-13T16:03:52;19.10;99.90
55203;DHT22;41077;52.956;6.796;2022-09-13T16:06:18;19.10;99.90
55203;DHT22;41077;52.956;6.796;2022-09-13T16:08:43;19.10;99.90
55203;DHT22;41077;52.956;6.796;2022-09-13T16:11:09;19.10;99.90
55203;DHT22;41077;52.956;6.796;2022-09-13T16:13:35;19.20;99.90
55203;DHT22;41077;52.956;6.796;2022-09-13T16:16:01;19.20;99.90
55203;DHT22;41077;52.956;6.796;2022-09-13T16:18:27;19.20;99.90
55203;DHT22;41077;52.956;6.796;2022-09-13T16:20:53;19.20;99.90
55203;DHT22;41077;52.956;6.796;2022-09-13T16:23:18;19.30;99.90
55203;DHT22;41077;52.956;6.796;2022-09-13T16:25:44;19.30;99.90
55203;DHT22;41077;52.956;6.796;2022-09-13T16:28:16;19.60;99.90
55203;DHT22;41077;52.956;6.796;2022-09-13T16:30:42;20.00;99.90
55203;DHT22;41077;52.956;6.796;2022-09-13T16:33:08;20.00;99.90
55203;DHT22;41077;52.956;6.796;2022-09-13T16:35:34;19.80;99.90
55203;DHT22;41077;52.956;6.796;2022-09-13T16:37:59;19.70;99.90
55203;DHT22;41077;52.956;6.796;2022-09-13T16:40:25;19.50;99.90
55203;DHT22;41077;52.956;6.796;2022-09-13T16:42:52;19.30;99.90
55203;DHT22;41077;52.956;6.796;2022-09-13T16:45:19;19.20;99.90
55203;DHT22;41077;52.956;6.796;2022-09-13T16:47:44;19.10;99.90
55203;DHT22;41077;52.956;6.796;2022-09-13T16:50:10;19.00;99.90
55203;DHT22;41077;52.956;6.796;2022-09-13T16:52:37;18.90;99.90
55203;DHT22;41077;52.956;6.796;2022-09-13T16:55:04;18.80;99.90
55203;DHT22;41077;52.956;6.796;2022-09-13T16:57:30;18.70;99.90
55203;DHT22;41077;52.956;6.796;2022-09-13T16:59:56;18.60;99.90
55203;DHT22;41077;52.956;6.796;2022-09-13T17:02:26;18.50;99.90
55203;DHT22;41077;52.956;6.796;2022-09-13T17:04:52;18.40;99.90
55203;DHT22;41077;52.956;6.796;2022-09-13T17:07:18;18.30;99.90
55203;DHT22;41077;52.956;6.796;2022-09-13T17:09:44;18.20;99.90
55203;DHT22;41077;52.956;6.796;2022-09-13T17:12:12;18.10;99.90
55203;DHT22;41077;52.956;6.796;2022-09-13T17:14:39;18.00;99.90
55203;DHT22;41077;52.956;6.796;2022-09-13T17:17:07;18.00;99.90
55203;DHT22;41077;52.956;6.796;2022-09-13T17:19:33;17.90;99.90
55203;DHT22;41077;52.956;6.796;2022-09-13T17:22:01;17.80;99.90
55203;DHT22;41077;52.956;6.796;2022-09-13T17:24:28;17.80;99.90
55203;DHT22;41077;52.956;6.796;2022-09-13T17:26:55;17.80;99.90
55203;DHT22;41077;52.956;6.796;2022-09-13T17:29:21;17.80;99.90
55203;DHT22;41077;52.956;6.796;2022-09-13T17:31:48;17.70;99.90
55203;DHT22;41077;52.956;6.796;2022-09-13T17:34:14;17.70;99.90
55203;DHT22;41077;52.956;6.796;2022-09-13T17:36:40;17.60;99.90
55203;DHT22;41077;52.956;6.796;2022-09-13T17:39:07;17.50;99.90
55203;DHT22;41077;52.956;6.796;2022-09-13T17:41:33;17.50;99.90
55203;DHT22;41077;52.956;6.796;2022-09-13T17:43:59;17.40;99.90
55203;DHT22;41077;52.956;6.796;2022-09-13T17:46:26;17.40;99.90
55203;DHT22;41077;52.956;6.796;2022-09-13T17:48:54;17.30;99.90
55203;DHT22;41077;52.956;6.796;2022-09-13T17:51:31;17.20;99.90
55203;DHT22;41077;52.956;6.796;2022-09-13T17:54:05;17.10;99.90
55203;DHT22;41077;52.956;6.796;2022-09-13T17:56:40;17.10;99.90
55203;DHT22;41077;52.956;6.796;2022-09-13T17:59:17;17.00;99.90
55203;DHT22;41077;52.956;6.796;2022-09-13T18:01:46;16.90;99.90
55203;DHT22;41077;52.956;6.796;2022-09-13T18:04:14;16.80;99.90
55203;DHT22;41077;52.956;6.796;2022-09-13T18:06:40;16.70;99.90
55203;DHT22;41077;52.956;6.796;2022-09-13T18:09:08;16.70;99.90
55203;DHT22;41077;52.956;6.796;2022-09-13T18:11:34;16.60;99.90
55203;DHT22;41077;52.956;6.796;2022-09-13T18:14:00;16.50;99.90
55203;DHT22;41077;52.956;6.796;2022-09-13T18:16:27;16.40;99.90
55203;DHT22;41077;52.956;6.796;2022-09-13T18:18:54;16.40;99.90
55203;DHT22;41077;52.956;6.796;2022-09-13T18:21:23;16.40;99.90
55203;DHT22;41077;52.956;6.796;2022-09-13T18:23:51;16.30;99.90
55203;DHT22;41077;52.956;6.796;2022-09-13T18:26:20;16.20;99.90
55203;DHT22;41077;52.956;6.796;2022-09-13T18:28:46;16.20;99.90
55203;DHT22;41077;52.956;6.796;2022-09-13T18:31:16;16.10;99.90
55203;DHT22;41077;52.956;6.796;2022-09-13T18:33:43;16.00;99.90
55203;DHT22;41077;52.956;6.796;2022-09-13T18:36:12;16.00;99.90
55203;DHT22;41077;52.956;6.796;2022-09-13T18:38:43;15.90;99.90
55203;DHT22;41077;52.956;6.796;2022-09-13T18:44:08;15.80;99.90
55203;DHT22;41077;52.956;6.796;2022-09-13T18:46:34;15.80;99.90
55203;DHT22;41077;52.956;6.796;2022-09-13T18:49:01;15.70;99.90
55203;DHT22;41077;52.956;6.796;2022-09-13T18:51:46;15.70;99.90
55203;DHT22;41077;52.956;6.796;2022-09-13T18:54:15;15.60;99.90
55203;DHT22;41077;52.956;6.796;2022-09-13T18:56:43;15.60;99.90
55203;DHT22;41077;52.956;6.796;2022-09-13T18:59:10;15.50;99.90
55203;DHT22;41077;52.956;6.796;2022-09-13T19:01:41;15.40;99.90
55203;DHT22;41077;52.956;6.796;2022-09-13T19:04:13;15.30;99.90
55203;DHT22;41077;52.956;6.796;2022-09-13T19:06:41;15.30;99.90
55203;DHT22;41077;52.956;6.796;2022-09-13T19:09:09;15.20;99.90
55203;DHT22;41077;52.956;6.796;2022-09-13T19:11:37;15.20;99.90
55203;DHT22;41077;52.956;6.796;2022-09-13T19:14:04;15.20;99.90
55203;DHT22;41077;52.956;6.796;2022-09-13T19:16:30;15.10;99.90
55203;DHT22;41077;52.956;6.796;2022-09-13T19:18:56;15.10;99.90
55203;DHT22;41077;52.956;6.796;2022-09-13T19:21:30;15.10;99.90
55203;DHT22;41077;52.956;6.796;2022-09-13T19:23:57;15.10;99.90
55203;DHT22;41077;52.956;6.796;2022-09-13T19:26:36;15.00;99.90